VOCB/CJB METAR and TAF weather

Enter ICAO airport designator
Station Type Date Time Source
VOCB METAR 2020/01/29 03:30 UTC NOAA

VOCB 290330Z 00000KT 3000 BR SCT015 24/19 Q1018 NOSIG


Station Type Date Time Source
VOCB Decoded METAR 2020/01/29 03:30 UTC NOAA

Coimbatore / Peelamedu, India (VOCB) 11-02N 077-03E 399M
Jan 28, 2020 - 10:30 PM EST / 2020.01.29 0330 UTC
Wind: Calm:0
Visibility: 1 mile(s):0
Sky conditions: partly cloudy
Weather: mist
Temperature: 75 F (24 C)
Dew Point: 66 F (19 C)
Relative Humidity: 73%
Pressure (altimeter): 30.06 in. Hg (1018 hPa)
ob: VOCB 290330Z 00000KT 3000 BR SCT015 24/19 Q1018 NOSIG
cycle: 3

Station Type Date Time Source
VOCB TAF 2020/01/28 18:00 UTC NOAA

TAF VOCB 281700Z 2818/2924 VRB02KT 5000 HZ FEW015
BECMG 2821/2822 3000 BR
TEMPO 2900/2903 2000 BR
BECMG 2905/2906 07010KT 5000 HZ
BECMG 2909/2910 6000
BECMG 2915/2916 VRB02KT 5000 HZ
BECMG 2921/2922 3000 BR

Example: see airport list